createdAt,value
2022-08-26T00:00:55.071Z,0
2022-08-26T00:01:55.105Z,0
2022-08-26T00:02:55.065Z,0
2022-08-26T00:03:55.130Z,0
2022-08-26T00:04:55.041Z,0
2022-08-26T00:05:55.064Z,0
2022-08-26T00:06:55.552Z,0
2022-08-26T00:07:55.316Z,0
2022-08-26T00:08:55.410Z,0
2022-08-26T00:09:55.890Z,0
2022-08-26T00:10:56.221Z,0
2022-08-26T00:11:55.696Z,0
2022-08-26T00:12:55.082Z,0
2022-08-26T00:13:55.062Z,0
2022-08-26T00:14:55.084Z,0
2022-08-26T00:15:55.104Z,0
2022-08-26T00:16:55.163Z,0
2022-08-26T00:17:55.064Z,0
2022-08-26T00:18:55.085Z,0
2022-08-26T00:19:55.067Z,0
2022-08-26T00:20:55.090Z,0
2022-08-26T00:21:55.069Z,0
2022-08-26T00:22:55.078Z,0
2022-08-26T00:23:55.063Z,0
2022-08-26T00:24:55.058Z,0
2022-08-26T00:25:55.118Z,0
2022-08-26T00:26:55.079Z,0
2022-08-26T00:27:55.068Z,0
2022-08-26T00:28:55.090Z,0
2022-08-26T00:29:55.077Z,0
2022-08-26T00:30:55.058Z,0
2022-08-26T00:31:55.106Z,0
2022-08-26T00:32:55.046Z,0
2022-08-26T00:33:55.119Z,0
2022-08-26T00:34:55.399Z,0
2022-08-26T00:35:55.145Z,0
2022-08-26T00:36:55.051Z,0
2022-08-26T00:37:55.394Z,0
2022-08-26T00:38:55.188Z,0
2022-08-26T00:39:55.515Z,0
2022-08-26T00:40:55.093Z,0
2022-08-26T00:41:55.300Z,0
2022-08-26T00:42:56.044Z,0
2022-08-26T00:43:55.490Z,0
2022-08-26T00:44:55.132Z,0
2022-08-26T00:45:55.173Z,0
2022-08-26T00:46:55.185Z,0
2022-08-26T00:47:55.047Z,0
2022-08-26T00:48:55.104Z,0
2022-08-26T00:49:55.129Z,0
2022-08-26T00:50:55.420Z,0
2022-08-26T00:51:55.645Z,0
2022-08-26T00:52:55.889Z,0
2022-08-26T00:53:56.242Z,0
2022-08-26T00:54:55.050Z,0
2022-08-26T00:55:55.816Z,0
2022-08-26T00:56:55.327Z,0
2022-08-26T00:57:55.060Z,0
2022-08-26T00:58:55.258Z,0
2022-08-26T00:59:55.427Z,0
2022-08-26T01:00:55.082Z,0
2022-08-26T01:01:55.095Z,0
2022-08-26T01:02:55.126Z,0
2022-08-26T01:03:55.365Z,0
2022-08-26T01:04:56.077Z,0
2022-08-26T01:05:55.060Z,0
2022-08-26T01:06:55.301Z,0
2022-08-26T01:07:55.074Z,0
2022-08-26T01:08:55.077Z,0
2022-08-26T01:09:55.378Z,0
2022-08-26T01:10:55.801Z,0
2022-08-26T01:11:55.059Z,0
2022-08-26T01:12:55.058Z,0
2022-08-26T01:13:55.058Z,0
2022-08-26T01:14:55.068Z,0
2022-08-26T01:15:55.117Z,0
2022-08-26T01:16:55.087Z,0
2022-08-26T01:17:55.068Z,0
2022-08-26T01:18:55.090Z,0
2022-08-26T01:19:55.075Z,0
2022-08-26T01:20:57.607Z,0
2022-08-26T01:21:55.066Z,0
2022-08-26T01:22:55.107Z,0
2022-08-26T01:23:57.312Z,0
2022-08-26T01:24:55.066Z,0
2022-08-26T01:25:55.065Z,0
2022-08-26T01:26:55.088Z,0
2022-08-26T01:27:55.065Z,0
2022-08-26T01:28:55.098Z,0
2022-08-26T01:29:55.063Z,0
2022-08-26T01:30:55.052Z,0
2022-08-26T01:31:55.110Z,0
2022-08-26T01:32:55.065Z,0
2022-08-26T01:33:55.109Z,0
2022-08-26T01:34:55.077Z,0
2022-08-26T01:35:55.065Z,0
2022-08-26T01:36:55.077Z,0
2022-08-26T01:37:55.062Z,0
2022-08-26T01:38:55.075Z,0
2022-08-26T01:39:55.092Z,0
2022-08-26T01:40:55.069Z,0
2022-08-26T01:41:55.067Z,0
2022-08-26T01:42:55.062Z,0
2022-08-26T01:43:55.079Z,0
2022-08-26T01:44:55.055Z,0
2022-08-26T01:45:55.096Z,0
2022-08-26T01:46:55.102Z,0
2022-08-26T01:47:56.491Z,0
2022-08-26T01:48:55.057Z,0
2022-08-26T01:49:55.066Z,0
2022-08-26T01:50:55.099Z,0
2022-08-26T01:51:55.056Z,0
2022-08-26T01:52:55.064Z,0
2022-08-26T01:53:55.065Z,0
2022-08-26T01:54:55.080Z,0
2022-08-26T01:55:55.089Z,0
2022-08-26T01:56:55.065Z,0
2022-08-26T01:57:56.241Z,0
2022-08-26T01:58:55.137Z,0
2022-08-26T01:59:55.070Z,0
2022-08-26T02:00:55.147Z,0
2022-08-26T02:01:55.077Z,0
2022-08-26T02:02:55.065Z,0
2022-08-26T02:03:55.082Z,0
2022-08-26T02:04:55.111Z,0
2022-08-26T02:05:55.113Z,0
2022-08-26T02:06:55.058Z,0
2022-08-26T02:07:55.089Z,0
2022-08-26T02:08:55.067Z,0
2022-08-26T02:09:55.202Z,0
2022-08-26T02:10:55.224Z,0
2022-08-26T02:11:55.073Z,0
2022-08-26T02:12:55.075Z,0
2022-08-26T02:13:55.061Z,0
2022-08-26T02:14:55.079Z,0
2022-08-26T02:15:55.139Z,0
2022-08-26T02:16:55.078Z,0
2022-08-26T02:17:55.068Z,0
2022-08-26T02:18:55.078Z,0
2022-08-26T02:19:55.075Z,0
2022-08-26T02:20:55.118Z,0
2022-08-26T02:21:55.074Z,0
2022-08-26T02:22:55.066Z,0
2022-08-26T02:23:55.417Z,0
2022-08-26T02:24:55.064Z,0
2022-08-26T02:25:55.135Z,0
2022-08-26T02:26:55.049Z,0
2022-08-26T02:27:55.162Z,0
2022-08-26T02:28:55.088Z,0
2022-08-26T02:29:55.398Z,0
2022-08-26T02:30:55.695Z,0
2022-08-26T02:31:55.254Z,0
2022-08-26T02:32:55.305Z,0
2022-08-26T02:33:55.084Z,0
2022-08-26T02:34:55.079Z,0
2022-08-26T02:35:55.057Z,0
2022-08-26T02:36:55.062Z,0
2022-08-26T02:37:55.070Z,0
2022-08-26T02:38:55.063Z,0
2022-08-26T02:39:55.150Z,0
2022-08-26T02:40:55.088Z,0
2022-08-26T02:41:55.110Z,0
2022-08-26T02:42:56.122Z,0
2022-08-26T02:43:55.066Z,0
2022-08-26T02:44:55.070Z,0
2022-08-26T02:45:55.080Z,0
2022-08-26T02:46:55.099Z,0
2022-08-26T02:47:55.064Z,0
2022-08-26T02:48:55.081Z,0
2022-08-26T02:49:55.068Z,0
2022-08-26T02:50:55.077Z,0
2022-08-26T02:51:55.078Z,0
2022-08-26T02:52:55.088Z,0
2022-08-26T02:53:55.063Z,0
2022-08-26T02:54:55.085Z,0
2022-08-26T02:55:55.071Z,0
2022-08-26T02:56:55.063Z,0
2022-08-26T02:57:55.077Z,0
2022-08-26T02:58:55.085Z,0
2022-08-26T02:59:55.060Z,0
2022-08-26T03:00:55.098Z,0
2022-08-26T03:01:55.969Z,0
2022-08-26T03:02:55.076Z,0
2022-08-26T03:03:55.109Z,0
2022-08-26T03:04:57.643Z,0
2022-08-26T03:05:55.069Z,0
2022-08-26T03:06:55.368Z,0
2022-08-26T03:07:55.065Z,0
2022-08-26T03:08:55.083Z,0
2022-08-26T03:09:55.058Z,0
2022-08-26T03:10:55.063Z,0
2022-08-26T03:11:55.054Z,0
2022-08-26T03:12:55.066Z,0
2022-08-26T03:13:55.111Z,0
2022-08-26T03:14:55.087Z,0
2022-08-26T03:15:55.105Z,0
2022-08-26T03:16:55.067Z,0
2022-08-26T03:17:55.082Z,0
2022-08-26T03:18:55.091Z,0
2022-08-26T03:19:57.164Z,0
2022-08-26T03:20:55.064Z,0
2022-08-26T03:21:58.230Z,0
2022-08-26T03:22:56.373Z,0
2022-08-26T03:23:55.163Z,0
2022-08-26T03:24:55.126Z,0
2022-08-26T03:25:55.667Z,0
2022-08-26T03:26:55.689Z,0
2022-08-26T03:27:55.066Z,0
2022-08-26T03:28:55.103Z,0
2022-08-26T03:29:55.059Z,0
2022-08-26T03:30:55.172Z,0
2022-08-26T03:31:55.074Z,0
2022-08-26T03:32:55.055Z,0
2022-08-26T03:33:58.814Z,0
2022-08-26T03:34:55.079Z,0
2022-08-26T03:35:55.069Z,0
2022-08-26T03:36:55.096Z,0
2022-08-26T03:37:55.098Z,0
2022-08-26T03:38:55.041Z,0
2022-08-26T03:39:55.115Z,0
2022-08-26T03:40:55.042Z,0
2022-08-26T03:41:55.133Z,0
2022-08-26T03:42:55.068Z,0
2022-08-26T03:43:58.470Z,0
2022-08-26T03:44:55.039Z,0
2022-08-26T03:45:55.158Z,0
2022-08-26T03:46:55.193Z,0.23
2022-08-26T03:47:55.521Z,0.23
2022-08-26T03:48:55.855Z,0.23
2022-08-26T03:49:55.443Z,0.23
2022-08-26T03:50:55.131Z,0.46
2022-08-26T03:51:55.343Z,0.46
2022-08-26T03:52:55.069Z,0.46
2022-08-26T03:53:55.063Z,0.69
2022-08-26T03:54:55.054Z,0.92
2022-08-26T03:55:55.038Z,0.92
2022-08-26T03:56:55.111Z,1.15
2022-08-26T03:57:55.038Z,1.38
2022-08-26T03:58:55.075Z,1.84
2022-08-26T03:59:55.098Z,2.07
2022-08-26T04:00:55.497Z,2.53
2022-08-26T04:01:55.159Z,3.22
2022-08-26T04:02:55.137Z,3.91
2022-08-26T04:03:55.057Z,4.6
2022-08-26T04:04:55.048Z,5.52
2022-08-26T04:05:55.132Z,6.44
2022-08-26T04:06:55.065Z,7.82
2022-08-26T04:07:55.070Z,9.2
2022-08-26T04:08:55.192Z,39.17
2022-08-26T04:09:55.186Z,12.5
2022-08-26T04:10:55.509Z,14.17
2022-08-26T04:11:55.070Z,16.67
2022-08-26T04:12:55.148Z,19.17
2022-08-26T04:13:55.035Z,22.5
2022-08-26T04:14:55.245Z,25.83
2022-08-26T04:15:55.524Z,30
2022-08-26T04:16:55.230Z,34.17
2022-08-26T04:17:55.896Z,38.33
2022-08-26T04:18:55.066Z,43.33
2022-08-26T04:19:55.227Z,49.17
2022-08-26T04:20:55.061Z,54.17
2022-08-26T04:21:55.068Z,61.67
2022-08-26T04:22:55.173Z,69.17
2022-08-26T04:23:55.365Z,76.67
2022-08-26T04:24:55.065Z,84.17
2022-08-26T04:25:55.062Z,93.33
2022-08-26T04:26:55.063Z,102.5
2022-08-26T04:27:55.106Z,112.5
2022-08-26T04:28:55.110Z,124.17
2022-08-26T04:29:55.381Z,137.5
2022-08-26T04:30:55.072Z,151.67
2022-08-26T04:31:55.403Z,165
2022-08-26T04:32:55.064Z,179.17
2022-08-26T04:33:55.084Z,192.5
2022-08-26T04:34:55.064Z,205.83
2022-08-26T04:35:55.069Z,219.17
2022-08-26T04:36:55.071Z,234.17
2022-08-26T04:37:55.075Z,249.17
2022-08-26T04:38:55.091Z,264.17
2022-08-26T04:39:55.087Z,278.33
2022-08-26T04:40:55.060Z,293.33
2022-08-26T04:41:55.110Z,310.83
2022-08-26T04:42:55.055Z,328.33
2022-08-26T04:43:55.085Z,346.67
2022-08-26T04:44:55.061Z,365.83
2022-08-26T04:45:55.060Z,384.17
2022-08-26T04:46:55.122Z,403.33
2022-08-26T04:47:55.052Z,420
2022-08-26T04:48:55.067Z,430
2022-08-26T04:49:55.069Z,433.33
2022-08-26T04:50:55.075Z,436.67
2022-08-26T04:51:55.084Z,445
2022-08-26T04:52:55.079Z,458.33
2022-08-26T04:53:55.065Z,474.17
2022-08-26T04:54:55.075Z,490
2022-08-26T04:55:55.182Z,505.83
2022-08-26T04:56:55.065Z,524.17
2022-08-26T04:57:55.066Z,544.17
2022-08-26T04:58:55.063Z,566.67
2022-08-26T04:59:55.059Z,591.67
2022-08-26T05:00:55.072Z,618.33
2022-08-26T05:01:55.086Z,643.33
2022-08-26T05:02:55.256Z,672.5
2022-08-26T05:03:55.101Z,704.17
2022-08-26T05:04:55.056Z,738.33
2022-08-26T05:05:55.057Z,776.67
2022-08-26T05:06:59.360Z,814.17
2022-08-26T05:07:55.060Z,849.17
2022-08-26T05:08:55.086Z,876.67
2022-08-26T05:09:55.058Z,900
2022-08-26T05:10:55.076Z,918.33
2022-08-26T05:11:55.070Z,930.83
2022-08-26T05:12:55.074Z,947.5
2022-08-26T05:13:56.567Z,973.33
2022-08-26T05:14:55.056Z,1006.67
2022-08-26T05:15:55.801Z,1039.17
2022-08-26T05:16:55.071Z,1069.17
2022-08-26T05:17:55.057Z,1105
2022-08-26T05:18:55.074Z,1155
2022-08-26T05:19:55.092Z,1218.33
2022-08-26T05:20:55.086Z,1290
2022-08-26T05:21:55.067Z,1368.33
2022-08-26T05:22:55.065Z,1450.83
2022-08-26T05:23:55.073Z,1528.33
2022-08-26T05:24:55.082Z,1599.17
2022-08-26T05:25:59.052Z,1659.17
2022-08-26T05:26:55.094Z,1713.33
2022-08-26T05:27:55.074Z,1767.5
2022-08-26T05:28:55.099Z,1818.33
2022-08-26T05:29:55.067Z,1868.33
2022-08-26T05:30:55.138Z,1924.17
2022-08-26T05:31:55.865Z,1973.33
2022-08-26T05:32:55.452Z,2024.17
2022-08-26T05:33:55.084Z,2075.83
2022-08-26T05:34:55.067Z,2128.33
2022-08-26T05:35:55.205Z,2181.67
2022-08-26T05:36:55.102Z,2238.33
2022-08-26T05:37:55.076Z,2305.83
2022-08-26T05:38:55.040Z,2366.67
2022-08-26T05:39:55.114Z,2405
2022-08-26T05:40:55.078Z,2431.67
2022-08-26T05:41:55.081Z,2453.33
2022-08-26T05:42:55.070Z,2472.5
2022-08-26T05:43:55.286Z,2497.5
2022-08-26T05:44:56.258Z,2516.67
2022-08-26T05:45:55.111Z,2528.33
2022-08-26T05:46:55.231Z,2529.17
2022-08-26T05:47:55.130Z,2516.67
2022-08-26T05:48:55.374Z,2507.5
2022-08-26T05:49:55.054Z,2502.5
2022-08-26T05:50:55.079Z,2500
2022-08-26T05:51:55.063Z,2503.33
2022-08-26T05:52:55.055Z,2515
2022-08-26T05:53:55.125Z,2523.33
2022-08-26T05:54:55.071Z,2541.67
2022-08-26T05:55:55.069Z,2575.83
2022-08-26T05:56:55.070Z,2617.5
2022-08-26T05:57:55.072Z,2631.67
2022-08-26T05:58:55.059Z,2636.67
2022-08-26T05:59:55.055Z,2650
2022-08-26T06:00:55.056Z,2640
2022-08-26T06:01:55.372Z,2636.67
2022-08-26T06:02:55.079Z,2707.5
2022-08-26T06:03:55.054Z,2799.17
2022-08-26T06:04:55.065Z,2895
2022-08-26T06:05:55.058Z,2993.33
2022-08-26T06:06:55.065Z,3054.17
2022-08-26T06:07:55.067Z,3157.5
2022-08-26T06:08:55.081Z,3255.83
2022-08-26T06:10:05.478Z,3285
2022-08-26T06:10:55.065Z,3325
2022-08-26T06:11:55.067Z,3396.67
2022-08-26T06:12:55.060Z,3495.83
2022-08-26T06:13:55.817Z,3598.33
2022-08-26T06:14:55.057Z,3767.5
2022-08-26T06:15:55.083Z,3874.17
2022-08-26T06:16:55.066Z,3910.83
2022-08-26T06:17:55.051Z,3990
2022-08-26T06:18:55.061Z,4060
2022-08-26T06:19:55.077Z,4116.67
2022-08-26T06:20:56.948Z,4182.5
2022-08-26T06:21:55.098Z,4214.17
2022-08-26T06:22:55.054Z,4300
2022-08-26T06:23:55.058Z,4396.67
2022-08-26T06:24:55.057Z,4483.33
2022-08-26T06:25:55.059Z,4561.67
2022-08-26T06:26:55.070Z,4635
2022-08-26T06:27:55.056Z,4664.17
2022-08-26T06:28:55.064Z,4724.17
2022-08-26T06:29:55.111Z,4784.17
2022-08-26T06:30:55.082Z,4840.83
2022-08-26T06:31:56.115Z,4892.5
2022-08-26T06:32:55.065Z,4993.33
2022-08-26T06:33:55.062Z,5092.5
2022-08-26T06:34:55.049Z,5212.5
2022-08-26T06:35:55.206Z,5325
2022-08-26T06:36:55.763Z,5422.5
2022-08-26T06:37:55.853Z,5546.67
2022-08-26T06:38:56.113Z,5732.5
2022-08-26T06:39:56.677Z,5835.83
2022-08-26T06:40:55.740Z,6053.33
2022-08-26T06:41:55.056Z,6174.17
2022-08-26T06:42:55.063Z,6405.83
2022-08-26T06:43:55.071Z,6793.33
2022-08-26T06:44:55.051Z,7413.33
2022-08-26T06:45:55.086Z,8222.5
2022-08-26T06:46:55.088Z,8496.67
2022-08-26T06:47:55.071Z,8440.83
2022-08-26T06:48:55.071Z,8868.33
2022-08-26T06:49:55.136Z,8783.33
2022-08-26T06:50:55.057Z,8735.83
2022-08-26T06:51:55.100Z,8309.17
2022-08-26T06:52:55.064Z,9260.83
2022-08-26T06:53:55.063Z,9798.33
2022-08-26T06:54:55.056Z,10767.5
2022-08-26T06:55:55.058Z,10405
2022-08-26T06:56:55.090Z,9330
2022-08-26T06:57:55.066Z,10245
2022-08-26T06:58:55.051Z,10745.83
2022-08-26T06:59:55.120Z,9876.67
2022-08-26T07:00:56.804Z,8321.67
2022-08-26T07:01:55.248Z,10509.17
2022-08-26T07:02:55.158Z,9042.5
2022-08-26T07:03:55.043Z,9170
2022-08-26T07:04:56.887Z,8134.17
2022-08-26T07:05:55.078Z,7760.83
2022-08-26T07:06:55.111Z,7650.83
2022-08-26T07:07:55.060Z,8980.83
2022-08-26T07:08:55.067Z,7950
2022-08-26T07:09:55.137Z,8594.17
2022-08-26T07:10:55.811Z,10190
2022-08-26T07:11:55.075Z,10834.17
2022-08-26T07:12:55.045Z,12539.17
2022-08-26T07:13:55.083Z,9562.5
2022-08-26T07:14:55.068Z,10697.5
2022-08-26T07:15:57.241Z,10655
2022-08-26T07:16:55.092Z,9936.67
2022-08-26T07:17:55.056Z,8777.5
2022-08-26T07:18:55.056Z,9470.83
2022-08-26T07:19:55.038Z,9557.5
2022-08-26T07:20:55.154Z,9530
2022-08-26T07:21:55.098Z,10794.17
2022-08-26T07:22:55.064Z,11482.5
2022-08-26T07:23:58.773Z,11742.5
2022-08-26T07:24:55.343Z,10350.83
2022-08-26T07:25:55.043Z,9931.67
2022-08-26T07:26:55.250Z,9548.33
2022-08-26T07:27:55.438Z,9282.5
2022-08-26T07:28:55.037Z,10221.67
2022-08-26T07:29:55.338Z,10324.17
2022-08-26T07:30:55.085Z,9327.5
2022-08-26T07:31:56.384Z,8779.17
2022-08-26T07:32:55.055Z,8100
2022-08-26T07:33:55.061Z,9160.83
2022-08-26T07:34:55.185Z,8990
2022-08-26T07:35:55.055Z,8271.67
2022-08-26T07:36:55.239Z,8176.67
2022-08-26T07:37:57.129Z,8478.33
2022-08-26T07:38:55.374Z,9132.5
2022-08-26T07:39:55.110Z,8809.17
2022-08-26T07:40:55.054Z,7429.17
2022-08-26T07:41:55.064Z,8878.33
2022-08-26T07:42:55.171Z,9208.33
2022-08-26T07:43:55.058Z,8380
2022-08-26T07:44:55.068Z,8600.83
2022-08-26T07:45:55.065Z,9100
2022-08-26T07:46:55.052Z,8534.17
2022-08-26T07:47:55.049Z,7739.17
2022-08-26T07:48:55.064Z,7528.33
2022-08-26T07:49:55.090Z,7651.67
2022-08-26T07:50:55.074Z,8174.17
2022-08-26T07:51:55.067Z,8196.67
2022-08-26T07:52:55.082Z,7652.5
2022-08-26T07:53:55.070Z,7686.67
2022-08-26T07:54:55.081Z,7540
2022-08-26T07:55:55.064Z,7693.33
2022-08-26T07:56:55.994Z,7729.17
2022-08-26T07:57:55.049Z,7734.17
2022-08-26T07:58:55.093Z,7360
2022-08-26T07:59:55.365Z,7246.67
2022-08-26T08:00:55.078Z,7520
2022-08-26T08:01:55.110Z,8452.5
2022-08-26T08:02:55.067Z,8952.5
2022-08-26T08:03:55.106Z,8616.67
2022-08-26T08:04:55.164Z,8550
2022-08-26T08:05:55.069Z,8855.83
2022-08-26T08:06:55.056Z,9072.5
2022-08-26T08:08:19.708Z,9046.67
2022-08-26T08:08:55.089Z,8835
2022-08-26T08:09:55.060Z,8814.17
2022-08-26T08:10:55.061Z,8486.67
2022-08-26T08:11:55.067Z,7538.33
2022-08-26T08:12:55.048Z,7898.33
2022-08-26T08:13:56.207Z,7810.83
2022-08-26T08:14:55.071Z,7503.33
2022-08-26T08:15:55.203Z,7533.33
2022-08-26T08:16:55.192Z,7645
2022-08-26T08:17:56.620Z,8040.83
2022-08-26T08:18:55.350Z,8388.33
2022-08-26T08:19:55.057Z,8300
2022-08-26T08:21:05.143Z,8389.17
2022-08-26T08:21:55.089Z,8326.67
2022-08-26T08:22:55.051Z,8110.83
2022-08-26T08:23:55.059Z,8010
2022-08-26T08:24:55.086Z,8212.5
2022-08-26T08:25:55.067Z,7841.67
2022-08-26T08:26:55.168Z,8020.83
2022-08-26T08:27:55.051Z,7996.67
2022-08-26T08:28:55.065Z,7722.5
2022-08-26T08:29:55.124Z,7346.67
2022-08-26T08:30:55.113Z,7084.17
2022-08-26T08:31:56.395Z,7150.83
2022-08-26T08:32:55.086Z,7151.67
2022-08-26T08:33:55.036Z,7107.5
2022-08-26T08:34:55.146Z,7350.83
2022-08-26T08:35:55.061Z,7160.83
2022-08-26T08:36:55.034Z,6582.5
2022-08-26T08:37:55.206Z,6730.83
2022-08-26T08:38:55.036Z,6755.83
2022-08-26T08:39:55.180Z,6935
2022-08-26T08:40:55.366Z,7298.33
2022-08-26T08:41:55.106Z,8516.67
2022-08-26T08:42:55.353Z,8546.67
2022-08-26T08:43:55.684Z,8106.67
2022-08-26T08:44:55.457Z,7921.67
2022-08-26T08:45:55.116Z,8650
2022-08-26T08:46:55.038Z,9049.17
2022-08-26T08:47:55.084Z,8879.17
2022-08-26T08:48:55.399Z,8734.17
2022-08-26T08:49:56.156Z,8658.33
2022-08-26T08:50:55.397Z,8186.67
2022-08-26T08:51:55.030Z,7979.17
2022-08-26T08:52:55.117Z,7661.67
2022-08-26T08:53:55.097Z,7222.5
2022-08-26T08:54:55.158Z,6947.5
2022-08-26T08:55:55.500Z,6796.67
2022-08-26T08:56:55.172Z,6770
2022-08-26T08:57:55.446Z,6619.17
2022-08-26T08:58:56.666Z,6749.17
2022-08-26T08:59:55.221Z,6963.33
2022-08-26T09:00:55.214Z,6980.83
2022-08-26T09:01:55.306Z,6875.83
2022-08-26T09:02:55.060Z,6025.83
2022-08-26T09:03:55.058Z,5387.5
2022-08-26T09:04:55.107Z,5519.17
2022-08-26T09:05:55.201Z,5803.33
2022-08-26T09:06:55.090Z,6453.33
2022-08-26T09:07:55.107Z,7187.5
2022-08-26T09:08:55.074Z,7790.83
2022-08-26T09:09:55.111Z,8474.17
2022-08-26T09:10:55.069Z,9330
2022-08-26T09:11:55.060Z,9526.67
2022-08-26T09:12:55.051Z,9251.67
2022-08-26T09:13:55.062Z,9155.83
2022-08-26T09:14:55.100Z,9280.83
2022-08-26T09:15:55.110Z,9294.17
2022-08-26T09:16:55.112Z,9195
2022-08-26T09:17:55.059Z,9461.67
2022-08-26T09:18:55.073Z,9818.33
2022-08-26T09:19:55.073Z,10031.67
2022-08-26T09:20:55.058Z,10148.33
2022-08-26T09:21:55.072Z,10259.17
2022-08-26T09:22:55.071Z,9398.33
2022-08-26T09:23:55.158Z,9736.67
2022-08-26T09:24:55.053Z,10479.17
2022-08-26T09:26:55.061Z,11339.17
2022-08-26T09:27:55.051Z,11217.5
2022-08-26T09:28:55.057Z,11556.67
2022-08-26T09:29:55.082Z,13006.67
2022-08-26T09:30:55.129Z,13314.17
2022-08-26T09:31:55.054Z,11268.33
2022-08-26T09:32:55.834Z,10176.67
2022-08-26T09:33:55.069Z,9780.83
2022-08-26T09:34:55.086Z,9449.17
2022-08-26T09:35:55.063Z,9551.67
2022-08-26T09:36:55.062Z,9423.33
2022-08-26T09:37:55.062Z,9176.67
2022-08-26T09:38:55.070Z,9235.83
2022-08-26T09:39:55.104Z,9360
2022-08-26T09:40:56.217Z,9702.5
2022-08-26T09:41:55.063Z,8779.17
2022-08-26T09:42:55.071Z,8030.83
2022-08-26T09:43:55.058Z,7860
2022-08-26T09:44:55.072Z,8310
2022-08-26T09:45:58.548Z,9002.5
2022-08-26T09:46:55.152Z,9678.33
2022-08-26T09:47:55.055Z,10438.33
2022-08-26T09:48:55.070Z,11131.67
2022-08-26T09:49:55.068Z,11565
2022-08-26T09:50:55.267Z,11607.5
2022-08-26T09:51:55.630Z,11494.17
2022-08-26T09:52:55.883Z,11907.5
2022-08-26T09:53:56.208Z,11558.33
2022-08-26T09:54:55.561Z,10651.67
2022-08-26T09:55:55.059Z,9783.33
2022-08-26T09:56:55.101Z,9432.5
2022-08-26T09:57:55.072Z,10042.5
2022-08-26T09:58:55.066Z,10582.5
2022-08-26T09:59:55.070Z,11120.83
2022-08-26T10:00:55.139Z,11863.33
2022-08-26T10:01:55.257Z,11860.83
2022-08-26T10:02:57.848Z,11381.67
2022-08-26T10:03:55.120Z,10972.5
2022-08-26T10:04:55.049Z,11103.33
2022-08-26T10:05:55.115Z,11671.67
2022-08-26T10:06:55.108Z,11817.5
2022-08-26T10:07:55.070Z,11520
2022-08-26T10:08:55.239Z,11460.83
2022-08-26T10:09:55.071Z,11644.17
2022-08-26T10:10:55.057Z,11966.67
2022-08-26T10:11:55.077Z,13428.33
2022-08-26T10:12:55.055Z,15860
2022-08-26T10:13:55.077Z,16315
2022-08-26T10:14:55.067Z,14195
2022-08-26T10:15:55.076Z,13076.67
2022-08-26T10:16:55.148Z,13070.83
2022-08-26T10:17:55.061Z,13614.17
2022-08-26T10:18:56.919Z,14190.83
2022-08-26T10:19:56.387Z,14330.83
2022-08-26T10:20:55.070Z,14360
2022-08-26T10:21:55.114Z,14295.83
2022-08-26T10:22:55.066Z,14826.67
2022-08-26T10:23:55.059Z,16273.33
2022-08-26T10:24:55.434Z,17491.67
2022-08-26T10:25:55.209Z,17039.17
2022-08-26T10:26:55.099Z,15733.33
2022-08-26T10:27:55.072Z,15158.33
2022-08-26T10:28:55.062Z,14420.83
2022-08-26T10:29:55.078Z,13838.33
2022-08-26T10:30:55.216Z,14112.5
2022-08-26T10:31:55.092Z,13623.33
2022-08-26T10:32:55.033Z,12742.5
2022-08-26T10:33:58.629Z,12225.83
2022-08-26T10:34:55.034Z,11565
2022-08-26T10:35:55.133Z,10780.83
2022-08-26T10:37:10.730Z,10470
2022-08-26T10:37:55.039Z,11088.33
2022-08-26T10:38:55.255Z,12257.5
2022-08-26T10:39:57.386Z,13534.17
2022-08-26T10:40:55.062Z,15125
2022-08-26T10:41:55.379Z,16150
2022-08-26T10:42:55.056Z,14540
2022-08-26T10:43:55.042Z,12749.17
2022-08-26T10:44:55.181Z,12029.17
2022-08-26T10:45:55.116Z,11648.33
2022-08-26T10:46:55.233Z,11279.17
2022-08-26T10:47:55.180Z,11322.5
2022-08-26T10:48:55.433Z,12247.5
2022-08-26T10:49:58.790Z,14130
2022-08-26T10:50:55.077Z,14329.17
2022-08-26T10:51:55.080Z,12665.83
2022-08-26T10:52:55.114Z,11696.67
2022-08-26T10:53:55.593Z,11551.67
2022-08-26T10:54:55.067Z,11889.17
2022-08-26T10:55:55.069Z,12399.17
2022-08-26T10:56:55.096Z,13315
2022-08-26T10:57:55.061Z,14226.67
2022-08-26T10:58:55.080Z,14640
2022-08-26T10:59:55.054Z,15820
2022-08-26T11:00:55.195Z,17095.83
2022-08-26T11:01:55.081Z,16523.33
2022-08-26T11:02:55.074Z,17181.67
2022-08-26T11:03:55.122Z,18542.5
2022-08-26T11:04:55.064Z,17283.33
2022-08-26T11:05:55.061Z,15630.83
2022-08-26T11:06:55.048Z,14993.33
2022-08-26T11:07:55.054Z,14874.17
2022-08-26T11:08:55.074Z,16043.33
2022-08-26T11:09:55.051Z,16710.83
2022-08-26T11:10:55.084Z,15626.67
2022-08-26T11:11:55.064Z,14900
2022-08-26T11:12:55.044Z,15233.33
2022-08-26T11:13:55.074Z,16235.83
2022-08-26T11:14:59.013Z,17731.67
2022-08-26T11:15:55.084Z,18585.83
2022-08-26T11:16:55.100Z,18935
2022-08-26T11:17:55.084Z,20413.33
2022-08-26T11:18:55.052Z,22966.67
2022-08-26T11:20:02.052Z,20208.33
2022-08-26T11:20:55.097Z,18253.33
2022-08-26T11:21:55.053Z,16629.17
2022-08-26T11:22:55.063Z,15269.17
2022-08-26T11:23:55.056Z,15050.83
2022-08-26T11:24:55.075Z,15125.83
2022-08-26T11:25:55.069Z,15551.67
2022-08-26T11:26:56.635Z,16134.17
2022-08-26T11:27:55.050Z,16090
2022-08-26T11:28:55.060Z,16842.5
2022-08-26T11:29:55.048Z,15641.67
2022-08-26T11:30:57.944Z,14618.33
2022-08-26T11:31:55.108Z,20029.17
2022-08-26T11:32:55.079Z,24036.67
2022-08-26T11:33:55.073Z,35691.66
2022-08-26T11:34:55.103Z,27392.5
2022-08-26T11:35:55.062Z,26520.83
2022-08-26T11:36:55.066Z,41622.5
2022-08-26T11:37:55.070Z,24168.33
2022-08-26T11:38:55.068Z,23182.5
2022-08-26T11:39:56.868Z,21504.17
2022-08-26T11:40:55.128Z,22500
2022-08-26T11:41:55.069Z,21388.33
2022-08-26T11:42:55.033Z,19971.67
2022-08-26T11:43:55.092Z,20369.17
2022-08-26T11:44:56.212Z,19652.5
2022-08-26T11:45:55.174Z,17722.5
2022-08-26T11:46:55.153Z,16358.33
2022-08-26T11:47:55.563Z,14786.67
2022-08-26T11:48:55.675Z,14650
2022-08-26T11:49:56.314Z,15265.83
2022-08-26T11:50:55.068Z,16535.83
2022-08-26T11:51:55.061Z,17080
2022-08-26T11:52:55.060Z,16915.83
2022-08-26T11:53:55.048Z,16071.67
2022-08-26T11:54:55.125Z,15307.5
2022-08-26T11:55:55.056Z,15019.17
2022-08-26T11:56:55.137Z,17051.67
2022-08-26T11:57:55.039Z,20568.33
2022-08-26T11:58:55.153Z,24541.67
2022-08-26T11:59:55.188Z,16156.67
2022-08-26T12:00:55.655Z,21551.67
2022-08-26T12:01:55.050Z,27120
2022-08-26T12:02:55.298Z,20640
2022-08-26T12:03:55.133Z,18386.67
2022-08-26T12:04:55.040Z,17705.83
2022-08-26T12:05:55.168Z,16535
2022-08-26T12:06:55.051Z,16021.67
2022-08-26T12:07:55.117Z,16940
2022-08-26T12:08:55.444Z,18805.83
2022-08-26T12:09:55.127Z,18927.5
2022-08-26T12:10:56.055Z,19385
2022-08-26T12:11:55.640Z,34215
2022-08-26T12:12:55.147Z,46995.47
2022-08-26T12:13:55.053Z,26890
2022-08-26T12:14:55.094Z,36995.83
2022-08-26T12:15:55.810Z,25798.33
2022-08-26T12:16:55.200Z,22210.83
2022-08-26T12:17:55.078Z,18127.5
2022-08-26T12:18:55.052Z,15576.67
2022-08-26T12:19:55.079Z,14793.33
2022-08-26T12:20:55.063Z,14928.33
2022-08-26T12:21:55.101Z,15680
2022-08-26T12:22:55.063Z,16250
2022-08-26T12:23:55.064Z,16801.67
2022-08-26T12:24:55.057Z,16685.83
2022-08-26T12:25:55.051Z,15689.17
2022-08-26T12:26:55.067Z,15244.17
2022-08-26T12:27:55.078Z,15347.5
2022-08-26T12:28:55.067Z,15592.5
2022-08-26T12:29:55.067Z,16550.83
2022-08-26T12:30:55.084Z,18205
2022-08-26T12:31:55.121Z,19637.5
2022-08-26T12:32:57.731Z,18992.5
2022-08-26T12:33:55.070Z,19505.83
2022-08-26T12:34:55.158Z,22901.67
2022-08-26T12:35:56.259Z,30950
2022-08-26T12:36:55.122Z,43355
2022-08-26T12:37:55.075Z,30667.5
2022-08-26T12:38:58.076Z,24448.33
2022-08-26T12:39:55.079Z,15710
2022-08-26T12:40:55.067Z,14974.17
2022-08-26T12:41:55.071Z,14321.67
2022-08-26T12:42:55.157Z,13878.33
2022-08-26T12:43:55.083Z,13919.17
2022-08-26T12:44:55.082Z,13925
2022-08-26T12:45:55.136Z,14524.17
2022-08-26T12:46:55.054Z,15925
2022-08-26T12:47:55.065Z,15708.33
2022-08-26T12:48:55.064Z,14855
2022-08-26T12:49:55.064Z,13957.5
2022-08-26T12:50:55.071Z,13546.67
2022-08-26T12:51:55.058Z,13973.33
2022-08-26T12:52:55.079Z,15464.17
2022-08-26T12:53:55.079Z,18520
2022-08-26T12:54:56.932Z,18529.17
2022-08-26T12:55:55.049Z,19100.83
2022-08-26T12:56:55.061Z,21303.33